Time;durP1;ratioP1;P1;durP2;ratioP2;P2;SDS_P1;SDS_P2;PMS_P1;PMS_P2;Temp;Humidity;BMP_temperature;BMP_pressure;BME280_temperature;BME280_humidity;BME280_pressure;Samples;Min_cycle;Max_cycle;Signal;HPM_P1;HPM_P2
2021/09/27 00:02:07;;;;;;;46.05;34.63;;;16.50;99.90;;;;;;5112868;28;20032;-84
2021/09/27 00:04:32;;;;;;;45.08;34.10;;;16.40;99.90;;;;;;5076367;28;20035;-85
2021/09/27 00:06:58;;;;;;;47.22;33.83;;;16.50;99.90;;;;;;5113177;27;20048;-85
2021/09/27 00:09:32;;;;;;;48.55;35.60;;;16.40;99.90;;;;;;5112721;27;20473;-82
2021/09/27 00:12:03;;;;;;;43.85;34.05;;;16.40;99.90;;;;;;5108035;27;20642;-84
2021/09/27 00:14:29;;;;;;;47.63;34.40;;;16.40;99.90;;;;;;5085760;28;20621;-84
2021/09/27 00:16:57;;;;;;;43.70;32.83;;;16.40;99.90;;;;;;5108971;27;20028;-83
2021/09/27 00:19:24;;;;;;;47.65;33.95;;;16.30;99.90;;;;;;5115329;27;20471;-85
2021/09/27 00:21:52;;;;;;;40.30;32.03;;;16.30;99.90;;;;;;5094175;28;20475;-85
2021/09/27 00:24:19;;;;;;;43.67;32.60;;;16.30;99.90;;;;;;5110495;27;20125;-85
2021/09/27 00:26:45;;;;;;;47.78;34.10;;;16.20;99.90;;;;;;5093090;28;20046;-83
2021/09/27 00:29:11;;;;;;;53.25;34.55;;;16.20;99.90;;;;;;5110040;27;20047;-84
2021/09/27 00:31:37;;;;;;;43.70;33.70;;;16.20;99.90;;;;;;5109163;27;20050;-84
2021/09/27 00:34:03;;;;;;;48.97;35.20;;;16.10;99.90;;;;;;5104070;27;20193;-83
2021/09/27 00:36:29;;;;;;;41.47;31.33;;;16.10;99.90;;;;;;5093560;28;20104;-82
2021/09/27 00:38:55;;;;;;;42.25;31.65;;;16.10;99.90;;;;;;5093591;27;20051;-83
2021/09/27 00:41:22;;;;;;;45.17;34.00;;;16.10;99.90;;;;;;5093487;28;20032;-82
2021/09/27 00:43:50;;;;;;;41.83;32.53;;;16.00;99.90;;;;;;5112918;27;20082;-83
2021/09/27 00:46:22;;;;;;;41.63;32.38;;;16.00;99.90;;;;;;5114271;27;20362;-83
2021/09/27 00:48:48;;;;;;;42.38;32.00;;;16.00;99.90;;;;;;5111266;27;20406;-83
2021/09/27 00:51:18;;;;;;;46.72;33.35;;;16.00;99.90;;;;;;5095748;28;20028;-84
2021/09/27 00:53:58;;;;;;;42.92;32.15;;;15.90;99.90;;;;;;5108634;27;20043;-83
2021/09/27 00:56:33;;;;;;;43.47;31.70;;;16.00;99.90;;;;;;5094950;28;20052;-84
2021/09/27 00:59:00;;;;;;;59.13;34.17;;;16.00;99.90;;;;;;5092956;28;20028;-85
2021/09/27 01:01:26;;;;;;;40.33;30.85;;;15.90;99.90;;;;;;5114110;27;20095;-85
2021/09/27 01:03:53;;;;;;;47.78;31.48;;;15.80;99.90;;;;;;5109324;28;20039;-82
2021/09/27 01:06:51;;;;;;;44.35;32.25;;;15.90;99.90;;;;;;5109379;27;20031;-82
2021/09/27 01:09:50;;;;;;;52.17;32.22;;;15.90;99.90;;;;;;5109744;27;20074;-82
2021/09/27 01:12:22;;;;;;;50.80;34.45;;;15.80;99.90;;;;;;5112550;27;20036;-81
2021/09/27 01:15:05;;;;;;;47.90;31.95;;;15.80;99.90;;;;;;5110069;28;20036;-83
2021/09/27 01:17:50;;;;;;;44.60;30.40;;;15.80;99.90;;;;;;5091573;28;20130;-84
2021/09/27 01:20:21;;;;;;;45.80;30.15;;;15.80;99.90;;;;;;5108864;27;20035;-85
2021/09/27 01:23:08;;;;;;;42.95;30.95;;;15.80;99.90;;;;;;5108369;28;20398;-83
2021/09/27 01:30:05;;;;;;;46.78;31.67;;;15.80;99.90;;;;;;5112370;27;20100;-82
2021/09/27 01:32:52;;;;;;;43.00;30.25;;;15.80;99.90;;;;;;5079872;28;20082;-85
2021/09/27 01:35:33;;;;;;;38.25;29.45;;;15.80;99.90;;;;;;5072848;28;20382;-82
2021/09/27 01:38:14;;;;;;;42.50;30.33;;;15.70;99.90;;;;;;5076700;28;20040;-82
2021/09/27 01:41:03;;;;;;;44.58;31.25;;;15.80;99.90;;;;;;5086523;28;20405;-82
2021/09/27 01:43:41;;;;;;;39.25;28.80;;;15.80;99.90;;;;;;5077435;28;20036;-83
2021/09/27 01:46:40;;;;;;;45.25;29.83;;;15.80;99.90;;;;;;5071666;28;20119;-83
2021/09/27 01:49:24;;;;;;;38.40;28.00;;;15.80;99.90;;;;;;5078427;28;20063;-84
2021/09/27 01:52:14;;;;;;;41.38;29.33;;;15.70;99.90;;;;;;5075118;28;20043;-83
2021/09/27 01:55:26;;;;;;;43.60;30.42;;;15.70;99.90;;;;;;5080158;28;20048;-84
2021/09/27 01:58:03;;;;;;;41.25;28.00;;;15.80;99.90;;;;;;5035893;28;20442;-85
2021/09/27 02:00:41;;;;;;;42.88;29.27;;;15.70;99.90;;;;;;5048459;28;20053;-85
2021/09/27 02:03:19;;;;;;;44.90;29.30;;;15.70;99.90;;;;;;5022537;28;20129;-85
2021/09/27 02:06:29;;;;;;;49.50;31.02;;;15.70;99.90;;;;;;5032622;28;20045;-82
2021/09/27 02:08:58;;;;;;;48.53;28.67;;;15.70;99.90;;;;;;5024324;28;20106;-82
2021/09/27 02:11:48;;;;;;;38.63;27.13;;;15.80;99.90;;;;;;5058686;28;20068;-84
2021/09/27 02:14:25;;;;;;;38.97;27.70;;;15.60;99.90;;;;;;5062425;28;20057;-85
2021/09/27 02:17:24;;;;;;;35.28;26.40;;;15.60;99.90;;;;;;5042559;28;20048;-83
2021/09/27 02:20:36;;;;;;;44.65;27.45;;;15.60;99.90;;;;;;5060004;28;20039;-84
2021/09/27 02:23:41;;;;;;;39.38;26.30;;;15.50;99.90;;;;;;5025530;28;20072;-83
2021/09/27 02:26:08;;;;;;;34.55;25.20;;;15.50;99.90;;;;;;4993983;28;20057;-83
2021/09/27 02:28:34;;;;;;;40.35;27.60;;;15.50;99.90;;;;;;5009933;28;20095;-84
2021/09/27 02:31:19;;;;;;;39.22;26.05;;;15.50;99.90;;;;;;5023797;28;20452;-84
2021/09/27 02:33:53;;;;;;;42.92;27.58;;;15.50;99.90;;;;;;5003177;28;20078;-84
2021/09/27 02:36:33;;;;;;;43.20;26.38;;;15.50;99.90;;;;;;5064757;28;20056;-83
2021/09/27 02:39:40;;;;;;;40.40;26.35;;;15.40;99.90;;;;;;5072781;28;20087;-83
2021/09/27 02:42:17;;;;;;;36.20;24.73;;;15.40;99.90;;;;;;5068681;28;20029;-84
2021/09/27 02:44:45;;;;;;;36.28;25.40;;;15.30;99.90;;;;;;5033871;28;20044;-83
2021/09/27 02:47:16;;;;;;;36.55;27.38;;;15.30;99.90;;;;;;5034117;28;20411;-81
2021/09/27 02:49:45;;;;;;;36.40;25.05;;;15.30;99.90;;;;;;5048473;28;20532;-85
2021/09/27 02:52:15;;;;;;;50.30;28.27;;;15.30;99.90;;;;;;5054706;28;20049;-83
2021/09/27 02:54:46;;;;;;;44.10;27.85;;;15.20;99.90;;;;;;5047658;28;20594;-82
2021/09/27 02:58:14;;;;;;;42.78;27.50;;;15.20;99.90;;;;;;5050313;28;20048;-82
2021/09/27 03:01:09;;;;;;;44.20;26.17;;;15.20;99.90;;;;;;5022217;28;20064;-82
2021/09/27 03:03:38;;;;;;;45.63;24.88;;;15.20;99.90;;;;;;5049814;28;20044;-83
2021/09/27 03:06:30;;;;;;;47.38;28.50;;;15.20;99.90;;;;;;5049486;28;20041;-84
2021/09/27 03:09:01;;;;;;;45.45;28.38;;;15.20;99.90;;;;;;5058089;28;20158;-81
2021/09/27 03:11:42;;;;;;;40.05;26.98;;;15.20;99.90;;;;;;5048348;28;20052;-83
2021/09/27 03:14:10;;;;;;;46.75;28.25;;;15.20;99.90;;;;;;5050333;28;20118;-82
2021/09/27 03:16:56;;;;;;;41.70;27.05;;;15.20;99.90;;;;;;5050274;28;20041;-85
2021/09/27 03:19:51;;;;;;;42.28;27.90;;;15.20;99.90;;;;;;5048619;28;20443;-84
2021/09/27 03:22:47;;;;;;;43.92;28.42;;;15.30;99.90;;;;;;5052699;28;20037;-81
2021/09/27 03:25:24;;;;;;;44.55;29.50;;;15.30;99.90;;;;;;5053458;28;20168;-85
2021/09/27 03:28:16;;;;;;;44.65;28.35;;;15.30;99.90;;;;;;5049215;28;20041;-83
2021/09/27 03:31:00;;;;;;;49.88;30.10;;;15.30;99.90;;;;;;5039135;28;20051;-84
2021/09/27 03:33:52;;;;;;;43.03;28.50;;;15.40;99.90;;;;;;5082330;28;20469;-84
2021/09/27 03:36:27;;;;;;;38.33;27.80;;;15.40;99.90;;;;;;5102989;28;20161;-83
2021/09/27 03:39:00;;;;;;;41.08;29.02;;;15.40;99.90;;;;;;5110706;27;20051;-84
2021/09/27 03:41:46;;;;;;;39.40;27.48;;;15.40;99.90;;;;;;5113582;27;20038;-84
2021/09/27 03:44:33;;;;;;;36.92;26.77;;;15.40;99.90;;;;;;5113931;27;20046;-82
2021/09/27 03:47:19;;;;;;;37.42;27.77;;;15.40;99.90;;;;;;5115406;27;20038;-82
2021/09/27 03:49:56;;;;;;;40.67;27.67;;;15.40;99.90;;;;;;5109955;27;20035;-81
2021/09/27 03:52:40;;;;;;;46.83;30.48;;;15.40;99.90;;;;;;5110949;28;20474;-82
2021/09/27 03:55:23;;;;;;;42.45;27.80;;;15.40;99.90;;;;;;5105294;28;20046;-83
2021/09/27 03:58:00;;;;;;;44.05;28.77;;;15.30;99.90;;;;;;5111177;27;20062;-82
2021/09/27 04:00:48;;;;;;;38.35;26.10;;;15.30;99.90;;;;;;5109886;28;20090;-83
2021/09/27 04:03:52;;;;;;;41.55;27.88;;;15.40;99.90;;;;;;5095190;28;20028;-82
2021/09/27 04:06:51;;;;;;;37.40;26.05;;;15.20;99.90;;;;;;5092030;28;20063;-84
2021/09/27 04:09:51;;;;;;;43.75;28.85;;;15.20;99.90;;;;;;5110916;27;20267;-84
2021/09/27 04:12:51;;;;;;;42.88;28.08;;;15.20;99.90;;;;;;5095097;28;20047;-81
2021/09/27 04:15:39;;;;;;;43.72;26.88;;;15.20;99.90;;;;;;5093645;28;20039;-83
2021/09/27 04:18:13;;;;;;;46.17;28.13;;;15.10;99.90;;;;;;5096244;27;20054;-83
2021/09/27 04:20:58;;;;;;;35.10;25.73;;;15.10;99.90;;;;;;5094246;28;20032;-82
2021/09/27 04:24:03;;;;;;;42.05;27.15;;;15.10;99.90;;;;;;5109750;27;20028;-81
2021/09/27 04:27:05;;;;;;;40.55;27.67;;;15.10;99.90;;;;;;5082967;27;20107;-84
2021/09/27 04:30:02;;;;;;;38.22;26.67;;;15.10;99.90;;;;;;5016583;28;20045;-84
2021/09/27 04:32:59;;;;;;;41.38;28.10;;;15.10;99.90;;;;;;5014936;28;20040;-83
2021/09/27 04:35:44;;;;;;;38.83;26.60;;;15.00;99.90;;;;;;5047483;28;20080;-83
2021/09/27 04:38:11;;;;;;;41.05;26.10;;;15.00;99.90;;;;;;5042485;28;20045;-81
2021/09/27 04:41:04;;;;;;;40.50;28.30;;;15.00;99.90;;;;;;5031736;28;20187;-82
2021/09/27 04:44:08;;;;;;;42.03;27.33;;;15.00;99.90;;;;;;5014909;28;20041;-82
2021/09/27 04:46:49;;;;;;;39.95;26.75;;;14.90;99.90;;;;;;5043554;28;20056;-81
2021/09/27 04:49:14;;;;;;;45.08;29.02;;;14.90;99.90;;;;;;5025095;28;20435;-85
2021/09/27 04:52:10;;;;;;;45.47;29.15;;;14.90;99.90;;;;;;5030445;28;20049;-82
2021/09/27 04:55:03;;;;;;;42.40;27.95;;;14.90;99.90;;;;;;5014454;28;20061;-82
2021/09/27 04:57:33;;;;;;;37.05;25.63;;;14.90;99.90;;;;;;5030303;28;20060;-83
2021/09/27 05:00:37;;;;;;;36.97;25.42;;;14.90;99.90;;;;;;5030078;28;20052;-82
2021/09/27 05:03:17;;;;;;;47.83;26.80;;;14.80;99.90;;;;;;5002287;28;20049;-83
2021/09/27 05:06:31;;;;;;;40.97;27.40;;;14.80;99.90;;;;;;5036920;28;20056;-84
2021/09/27 05:09:14;;;;;;;45.38;28.00;;;14.80;99.90;;;;;;5106637;28;20148;-82
2021/09/27 05:12:17;;;;;;;42.45;27.77;;;14.70;99.90;;;;;;5085312;28;20375;-83
2021/09/27 05:14:58;;;;;;;42.97;28.27;;;14.70;99.90;;;;;;5090610;27;20069;-86
2021/09/27 05:17:56;;;;;;;40.23;27.43;;;14.70;99.90;;;;;;5102374;27;20171;-86
2021/09/27 05:20:43;;;;;;;38.20;26.73;;;14.70;99.90;;;;;;5109475;27;20027;-82
2021/09/27 05:23:32;;;;;;;39.55;27.92;;;14.70;99.90;;;;;;5108220;27;20063;-85
2021/09/27 05:26:16;;;;;;;44.35;28.42;;;14.70;99.90;;;;;;5099975;27;20078;-83
2021/09/27 05:28:56;;;;;;;45.20;28.23;;;14.70;99.90;;;;;;5109053;27;20455;-82
2021/09/27 05:31:50;;;;;;;42.38;29.55;;;14.70;99.90;;;;;;5109084;27;20047;-86
2021/09/27 05:34:38;;;;;;;41.97;28.52;;;14.70;99.90;;;;;;5091172;27;20042;-80
2021/09/27 05:37:26;;;;;;;43.22;27.98;;;14.70;99.90;;;;;;5107521;28;20471;-84
2021/09/27 05:40:00;;;;;;;43.33;28.63;;;14.70;99.90;;;;;;5094656;28;20039;-81
2021/09/27 05:42:38;;;;;;;43.92;27.65;;;14.70;99.90;;;;;;5113256;27;20047;-83
2021/09/27 05:45:24;;;;;;;50.30;30.35;;;14.70;99.90;;;;;;5098105;28;20043;-82
2021/09/27 05:48:01;;;;;;;45.35;29.65;;;14.70;99.90;;;;;;5102430;27;20051;-81
2021/09/27 05:50:52;;;;;;;44.08;29.77;;;14.70;99.90;;;;;;5091097;28;20130;-79
2021/09/27 05:53:45;;;;;;;48.17;29.48;;;14.70;99.90;;;;;;5087925;28;20051;-82
2021/09/27 05:56:33;;;;;;;42.65;29.55;;;14.70;99.90;;;;;;5114148;27;20048;-82
2021/09/27 05:59:39;;;;;;;47.15;29.10;;;14.80;99.90;;;;;;5107533;28;20039;-83
2021/09/27 06:02:12;;;;;;;;;;;14.70;99.90;;;;;;5101023;28;20039;-81
2021/09/27 06:04:53;;;;;;;50.92;31.13;;;14.80;99.90;;;;;;5107846;27;19920;-82
2021/09/27 06:08:11;;;;;;;48.90;29.95;;;14.90;99.90;;;;;;5108819;28;20036;-81
2021/09/27 06:11:07;;;;;;;51.80;29.83;;;14.90;99.90;;;;;;5109835;27;20059;-83
2021/09/27 06:13:35;;;;;;;50.55;32.33;;;15.00;99.90;;;;;;5101748;28;20039;-81
2021/09/27 06:16:12;;;;;;;49.50;31.17;;;15.10;99.90;;;;;;5102803;28;20078;-82
2021/09/27 06:19:03;;;;;;;56.28;32.70;;;15.10;99.90;;;;;;5082943;27;20142;-81
2021/09/27 06:21:51;;;;;;;57.97;33.20;;;15.20;99.90;;;;;;5100996;28;20510;-83
2021/09/27 06:24:48;;;;;;;61.58;34.47;;;15.20;99.90;;;;;;5103621;28;20074;-81
2021/09/27 06:27:39;;;;;;;58.85;35.20;;;15.30;99.90;;;;;;5043480;28;20051;-85
2021/09/27 06:30:20;;;;;;;62.55;34.65;;;15.30;99.90;;;;;;5034604;28;20049;-83
2021/09/27 06:33:10;;;;;;;62.80;36.05;;;15.40;99.90;;;;;;5013463;28;20500;-82
2021/09/27 06:35:38;;;;;;;60.38;36.25;;;15.40;99.90;;;;;;5031614;28;20064;-82
2021/09/27 06:38:07;;;;;;;55.38;34.78;;;15.40;99.90;;;;;;5017101;28;20044;-83
2021/09/27 06:40:37;;;;;;;56.33;34.10;;;15.50;99.90;;;;;;5029727;28;20068;-81
2021/09/27 06:43:02;;;;;;;61.50;35.63;;;15.50;99.90;;;;;;5016895;28;20704;-80
2021/09/27 06:45:28;;;;;;;63.75;34.97;;;15.50;99.90;;;;;;5031694;28;20098;-80
2021/09/27 06:47:55;;;;;;;60.75;34.38;;;15.50;99.90;;;;;;5048093;28;20334;-81
2021/09/27 06:50:21;;;;;;;63.80;34.97;;;15.60;99.90;;;;;;5028902;28;20128;-82
2021/09/27 06:52:47;;;;;;;65.78;35.20;;;15.60;99.90;;;;;;5026936;28;20183;-82
2021/09/27 06:55:13;;;;;;;69.03;35.42;;;15.70;99.90;;;;;;5029150;28;20052;-83
2021/09/27 06:57:39;;;;;;;65.13;36.20;;;15.70;99.90;;;;;;5036483;28;20040;-80
2021/09/27 07:00:06;;;;;;;59.63;35.35;;;15.80;99.90;;;;;;5031956;28;20056;-83
2021/09/27 07:02:31;;;;;;;67.45;36.05;;;15.80;99.90;;;;;;5037538;28;20043;-79
2021/09/27 07:04:57;;;;;;;62.28;35.47;;;15.90;99.90;;;;;;5105531;28;20055;-80
2021/09/27 07:07:23;;;;;;;59.55;34.85;;;15.90;99.90;;;;;;5121286;28;20043;-81
2021/09/27 07:09:48;;;;;;;56.80;34.58;;;15.90;99.90;;;;;;5092530;28;20066;-81
2021/09/27 07:12:14;;;;;;;59.80;34.20;;;16.00;99.90;;;;;;5102991;27;20039;-81
2021/09/27 07:14:40;;;;;;;62.60;34.20;;;16.00;99.90;;;;;;5113828;27;20054;-81
2021/09/27 07:17:09;;;;;;;56.05;33.95;;;16.00;99.90;;;;;;5115892;27;20173;-81
2021/09/27 07:19:35;;;;;;;62.28;33.90;;;16.00;99.90;;;;;;5105946;27;20039;-81
2021/09/27 07:22:01;;;;;;;63.33;33.85;;;16.00;99.90;;;;;;5097549;28;20466;-81
2021/09/27 07:24:27;;;;;;;51.22;33.13;;;16.10;99.90;;;;;;5124018;27;20103;-80
2021/09/27 07:26:52;;;;;;;50.90;31.15;;;16.10;99.90;;;;;;5134665;27;20039;-81
2021/09/27 07:29:18;;;;;;;53.03;31.70;;;16.10;99.90;;;;;;5098212;27;20109;-80
2021/09/27 07:31:44;;;;;;;52.97;31.60;;;16.10;99.90;;;;;;5114712;27;20024;-81
2021/09/27 07:34:10;;;;;;;49.50;31.98;;;16.10;99.90;;;;;;5121399;27;20486;-82
2021/09/27 07:36:37;;;;;;;55.53;32.78;;;16.10;99.90;;;;;;5115914;27;20131;-83
2021/09/27 07:39:05;;;;;;;57.90;32.83;;;16.20;99.90;;;;;;5119657;27;20051;-81
2021/09/27 07:41:31;;;;;;;56.38;33.97;;;16.20;99.90;;;;;;5120806;27;20043;-81
2021/09/27 07:43:58;;;;;;;54.58;33.38;;;16.20;99.90;;;;;;5113000;27;20484;-83
2021/09/27 07:46:24;;;;;;;58.90;34.35;;;16.30;99.90;;;;;;5099061;27;20402;-82
2021/09/27 07:48:50;;;;;;;64.07;35.40;;;16.30;99.90;;;;;;5117453;27;20054;-78
2021/09/27 07:51:17;;;;;;;60.47;35.25;;;16.40;99.90;;;;;;5090027;27;20510;-83
2021/09/27 07:53:43;;;;;;;58.67;34.55;;;16.50;99.90;;;;;;5088464;28;20044;-79
2021/09/27 07:56:09;;;;;;;43.58;26.92;;;16.50;99.90;;;;;;5111979;27;20419;-78
2021/09/27 07:58:35;;;;;;;41.03;23.65;;;16.70;99.90;;;;;;5110976;27;20122;-78
2021/09/27 08:01:01;;;;;;;41.60;25.67;;;17.00;99.90;;;;;;5095101;28;20047;-79
2021/09/27 08:03:27;;;;;;;44.38;26.55;;;17.10;99.90;;;;;;5113737;27;20054;-80
2021/09/27 08:05:53;;;;;;;51.58;28.08;;;17.30;99.90;;;;;;5096849;28;20051;-79
2021/09/27 08:08:19;;;;;;;48.22;29.05;;;17.40;99.90;;;;;;5096201;27;20402;-79
2021/09/27 08:10:45;;;;;;;42.53;25.85;;;17.40;99.90;;;;;;5111748;27;20066;-81
2021/09/27 08:13:11;;;;;;;44.65;26.13;;;17.60;99.90;;;;;;5098774;28;20131;-79
2021/09/27 08:15:41;;;;;;;43.67;25.27;;;17.70;99.90;;;;;;5096086;28;20098;-78
2021/09/27 08:18:08;;;;;;;50.75;28.85;;;17.70;99.90;;;;;;5112553;27;20054;-78
2021/09/27 08:20:44;;;;;;;44.92;28.55;;;17.60;99.90;;;;;;5112707;27;20051;-80
2021/09/27 08:23:10;;;;;;;38.28;24.48;;;17.50;99.90;;;;;;5120045;27;20043;-79
2021/09/27 08:25:37;;;;;;;37.17;23.23;;;17.60;99.90;;;;;;5118420;27;20042;-79
2021/09/27 08:28:03;;;;;;;33.67;22.83;;;17.70;99.90;;;;;;5112166;27;20440;-81
2021/09/27 08:30:39;;;;;;;39.35;24.90;;;17.90;99.90;;;;;;5112980;27;20085;-78
2021/09/27 08:33:05;;;;;;;31.40;20.48;;;17.90;99.90;;;;;;5107189;27;20047;-79
2021/09/27 08:35:32;;;;;;;31.08;20.55;;;18.10;99.90;;;;;;5113808;27;20130;-79
2021/09/27 08:37:59;;;;;;;32.58;20.20;;;18.20;99.90;;;;;;5095391;28;20134;-80
2021/09/27 08:40:58;;;;;;;25.13;18.08;;;18.40;99.90;;;;;;5120000;27;20035;-79
2021/09/27 08:43:48;;;;;;;29.23;20.48;;;18.40;99.90;;;;;;5095745;28;20050;-78
2021/09/27 08:46:23;;;;;;;27.30;20.10;;;18.50;99.90;;;;;;5117199;27;20137;-79
2021/09/27 08:49:16;;;;;;;29.80;19.17;;;18.60;99.90;;;;;;5112551;27;20509;-82
2021/09/27 08:51:42;;;;;;;22.95;17.13;;;18.70;99.90;;;;;;5099827;27;20051;-83
2021/09/27 08:54:16;;;;;;;24.08;16.83;;;18.70;99.90;;;;;;5111215;27;20075;-80
2021/09/27 08:56:53;;;;;;;23.05;15.80;;;18.80;99.90;;;;;;5110257;27;20059;-78
2021/09/27 08:59:30;;;;;;;22.67;16.65;;;18.70;99.90;;;;;;5096375;28;20443;-81
2021/09/27 09:02:22;;;;;;;24.85;17.33;;;18.80;99.90;;;;;;5095987;27;20393;-81
2021/09/27 09:05:09;;;;;;;24.73;17.30;;;18.70;99.90;;;;;;5101447;27;20400;-78
2021/09/27 09:08:13;;;;;;;26.77;17.90;;;18.80;99.90;;;;;;5111098;27;20062;-79
2021/09/27 09:11:06;;;;;;;25.03;17.07;;;18.80;99.90;;;;;;5097178;28;20094;-79
2021/09/27 09:13:52;;;;;;;23.02;16.77;;;19.00;99.90;;;;;;5089403;28;20113;-78
2021/09/27 09:16:21;;;;;;;21.00;16.92;;;19.10;99.90;;;;;;5092057;28;20097;-79
2021/09/27 09:18:54;;;;;;;20.55;16.58;;;19.40;99.90;;;;;;5071063;28;20112;-80
2021/09/27 09:21:31;;;;;;;18.30;15.07;;;19.50;99.90;;;;;;5081269;28;20490;-79
2021/09/27 09:24:00;;;;;;;21.33;15.18;;;19.60;99.90;;;;;;5080286;28;20040;-82
2021/09/27 09:26:33;;;;;;;21.35;14.65;;;19.70;99.90;;;;;;5079326;28;20486;-81
2021/09/27 09:28:59;;;;;;;20.05;14.57;;;19.80;99.90;;;;;;5080187;28;20044;-80
2021/09/27 09:31:33;;;;;;;20.63;15.23;;;19.90;99.90;;;;;;5071580;28;20055;-81
2021/09/27 09:34:16;;;;;;;17.38;13.65;;;20.00;99.90;;;;;;5087947;28;20090;-80
2021/09/27 09:36:42;;;;;;;19.10;14.57;;;20.00;99.90;;;;;;5086716;28;20043;-80
2021/09/27 09:39:22;;;;;;;18.25;14.48;;;19.90;99.90;;;;;;5063127;28;20503;-80
2021/09/27 09:41:54;;;;;;;29.80;15.70;;;20.00;99.90;;;;;;5065012;28;20055;-80
2021/09/27 09:44:26;;;;;;;23.33;15.07;;;20.00;99.90;;;;;;5085198;27;20047;-80
2021/09/27 09:46:59;;;;;;;21.30;14.70;;;20.20;99.90;;;;;;5093882;28;20051;-82
2021/09/27 09:49:24;;;;;;;17.05;13.52;;;20.10;99.90;;;;;;5110485;27;20055;-81
2021/09/27 09:52:00;;;;;;;15.98;12.63;;;20.20;99.90;;;;;;5096027;28;20058;-83
2021/09/27 09:54:30;;;;;;;19.63;13.45;;;20.30;99.90;;;;;;5107630;27;20043;-83
2021/09/27 09:57:22;;;;;;;17.95;14.93;;;20.40;99.90;;;;;;5108000;27;20035;-79
2021/09/27 10:00:04;;;;;;;17.60;13.00;;;20.30;99.90;;;;;;5050486;28;20059;-81
2021/09/27 10:02:32;;;;;;;17.25;12.48;;;20.50;99.90;;;;;;5052006;28;20071;-80
2021/09/27 10:05:19;;;;;;;14.10;11.57;;;20.60;99.90;;;;;;5069017;28;20052;-78
2021/09/27 10:07:51;;;;;;;16.15;12.80;;;20.60;99.90;;;;;;5054907;28;20119;-83
2021/09/27 10:10:36;;;;;;;21.75;12.73;;;20.80;99.90;;;;;;5056569;28;20056;-85
2021/09/27 10:13:04;;;;;;;17.90;12.38;;;20.80;99.90;;;;;;5048213;28;20460;-84
2021/09/27 10:15:41;;;;;;;13.95;11.82;;;20.80;99.90;;;;;;5055486;28;20139;-85
2021/09/27 10:18:22;;;;;;;14.82;12.43;;;20.70;99.90;;;;;;5044350;28;20070;-85
2021/09/27 10:21:24;;;;;;;14.40;12.02;;;20.70;99.90;;;;;;5051815;28;20055;-82
2021/09/27 10:23:54;;;;;;;16.90;11.70;;;20.80;99.90;;;;;;5031498;28;20684;-83
2021/09/27 10:26:38;;;;;;;14.48;11.88;;;20.70;99.90;;;;;;5058541;28;20074;-81
2021/09/27 10:29:14;;;;;;;16.90;12.13;;;20.70;99.90;;;;;;5066148;28;20044;-80
2021/09/27 10:31:53;;;;;;;20.05;11.88;;;20.70;99.90;;;;;;5042905;28;20088;-79
2021/09/27 10:34:22;;;;;;;15.30;11.50;;;20.70;99.90;;;;;;5017896;28;20437;-84
2021/09/27 10:37:01;;;;;;;14.73;11.15;;;20.80;99.90;;;;;;5062603;27;20130;-83
2021/09/27 10:39:30;;;;;;;16.75;10.60;;;21.00;99.90;;;;;;5110697;27;20059;-80
2021/09/27 10:42:04;;;;;;;16.75;10.80;;;21.10;99.90;;;;;;5112433;27;20109;-78
2021/09/27 10:44:43;;;;;;;13.60;11.00;;;21.30;99.90;;;;;;5110547;27;20455;-78
2021/09/27 10:47:19;;;;;;;19.30;10.77;;;21.50;99.90;;;;;;5089526;28;20534;-78
2021/09/27 10:49:53;;;;;;;16.77;10.80;;;21.70;99.90;;;;;;5088993;28;20391;-78
2021/09/27 10:52:21;;;;;;;14.25;10.40;;;22.00;99.90;;;;;;5108254;27;20055;-78
2021/09/27 10:55:00;;;;;;;14.75;9.60;;;22.10;99.90;;;;;;5091628;28;20047;-77
2021/09/27 10:57:47;;;;;;;13.02;9.27;;;22.10;99.90;;;;;;5088171;28;20052;-78
2021/09/27 11:00:49;;;;;;;15.40;9.80;;;21.90;99.90;;;;;;5109154;28;20457;-75
2021/09/27 11:03:34;;;;;;;13.48;8.82;;;21.80;99.90;;;;;;5046815;28;20136;-77
2021/09/27 11:06:18;;;;;;;11.77;9.70;;;21.80;99.90;;;;;;5032647;28;20136;-76
2021/09/27 11:08:55;;;;;;;10.30;8.75;;;21.70;99.90;;;;;;5056821;28;20132;-76
2021/09/27 11:11:55;;;;;;;10.68;8.60;;;21.80;99.90;;;;;;5044645;28;20029;-77
2021/09/27 11:14:31;;;;;;;11.05;7.88;;;21.80;99.90;;;;;;5002266;28;20174;-75
2021/09/27 11:17:06;;;;;;;16.15;8.82;;;22.00;99.90;;;;;;4995984;28;20074;-77
2021/09/27 11:19:31;;;;;;;11.50;8.20;;;22.20;99.90;;;;;;4997433;28;20050;-76
2021/09/27 11:22:20;;;;;;;10.65;8.45;;;22.20;99.90;;;;;;5012201;28;20060;-77
2021/09/27 11:24:50;;;;;;;15.88;8.55;;;22.10;99.90;;;;;;5010514;28;20054;-77
2021/09/27 11:27:16;;;;;;;11.30;7.32;;;22.30;99.90;;;;;;5010565;28;20136;-78
2021/09/27 11:30:18;;;;;;;9.98;7.60;;;22.30;99.90;;;;;;4993983;28;20132;-78
2021/09/27 11:32:57;;;;;;;9.85;7.25;;;22.40;99.90;;;;;;5011117;28;20073;-78
2021/09/27 11:35:44;;;;;;;13.65;7.30;;;22.30;99.90;;;;;;4990724;28;20062;-78
2021/09/27 11:38:18;;;;;;;12.27;7.18;;;22.20;99.90;;;;;;4998450;28;20618;-77
2021/09/27 11:40:47;;;;;;;9.43;7.10;;;22.10;99.90;;;;;;5032942;28;20064;-78
2021/09/27 11:43:21;;;;;;;10.02;6.78;;;22.00;99.90;;;;;;5056265;28;20051;-77
2021/09/27 11:45:53;;;;;;;;;;;22.10;99.90;;;;;;5037858;28;20083;-78
2021/09/27 11:48:19;;;;;;;8.88;6.22;;;22.10;99.90;;;;;;5047326;28;19920;-81
2021/09/27 11:51:04;;;;;;;8.43;6.25;;;22.20;99.90;;;;;;5048664;28;20077;-77
2021/09/27 11:54:03;;;;;;;8.68;6.45;;;22.20;99.90;;;;;;5099702;28;20170;-78
2021/09/27 11:56:43;;;;;;;9.73;6.40;;;22.30;99.90;;;;;;5096135;27;20031;-79
2021/09/27 11:59:20;;;;;;;13.32;6.82;;;22.50;99.90;;;;;;5110062;27;20110;-78
2021/09/27 12:02:13;;;;;;;8.48;6.40;;;22.60;99.90;;;;;;5129371;27;20680;-79
2021/09/27 12:04:56;;;;;;;7.82;5.90;;;22.70;99.90;;;;;;5089287;27;20060;-79
2021/09/27 12:07:33;;;;;;;10.05;5.68;;;22.70;99.90;;;;;;5114893;27;20040;-78
2021/09/27 12:10:13;;;;;;;10.07;6.05;;;22.70;99.90;;;;;;5112382;27;20059;-77
2021/09/27 12:12:55;;;;;;;9.40;6.20;;;22.70;99.90;;;;;;5084678;27;20350;-78
2021/09/27 12:15:24;;;;;;;15.20;5.30;;;22.80;99.90;;;;;;5108104;27;20067;-79
2021/09/27 12:17:50;;;;;;;13.82;6.82;;;22.60;99.90;;;;;;5112266;27;20048;-80
2021/09/27 12:20:24;;;;;;;14.35;7.15;;;22.50;99.90;;;;;;5113026;27;20044;-81
2021/09/27 12:22:57;;;;;;;12.57;7.70;;;22.50;99.90;;;;;;5112919;27;20124;-78
2021/09/27 12:25:42;;;;;;;8.15;5.25;;;22.50;99.90;;;;;;5104532;27;20047;-78
2021/09/27 12:28:23;;;;;;;6.40;5.05;;;22.50;99.90;;;;;;5110654;27;20131;-78
2021/09/27 12:30:57;;;;;;;7.55;5.57;;;22.60;99.90;;;;;;5115525;27;20055;-78
2021/09/27 12:33:26;;;;;;;8.73;5.15;;;22.60;99.90;;;;;;5106480;27;20047;-78
2021/09/27 12:36:18;;;;;;;11.45;5.38;;;22.70;99.90;;;;;;5111515;27;20439;-78
2021/09/27 12:38:47;;;;;;;9.18;5.00;;;22.70;99.90;;;;;;5112415;27;20044;-79
2021/09/27 12:41:13;;;;;;;9.02;4.97;;;22.60;99.90;;;;;;5114431;27;20043;-79
2021/09/27 12:43:39;;;;;;;8.57;4.30;;;22.70;99.90;;;;;;5081178;27;20057;-78
2021/09/27 12:46:24;;;;;;;5.85;4.40;;;22.60;99.90;;;;;;5093279;28;20078;-79
2021/09/27 12:48:57;;;;;;;7.88;4.50;;;22.50;99.90;;;;;;5111854;27;20438;-79
2021/09/27 12:51:29;;;;;;;7.88;5.53;;;22.40;99.90;;;;;;5108706;27;20043;-79
2021/09/27 12:54:22;;;;;;;8.63;4.65;;;22.30;99.90;;;;;;5108196;27;20440;-77
2021/09/27 12:56:48;;;;;;;8.77;4.10;;;22.40;99.90;;;;;;5110992;27;20148;-77
2021/09/27 12:59:17;;;;;;;8.07;4.68;;;22.30;99.90;;;;;;5087934;28;20051;-79
2021/09/27 13:01:47;;;;;;;8.00;5.00;;;22.30;99.90;;;;;;5118058;27;20066;-79
2021/09/27 13:04:33;;;;;;;6.40;4.30;;;22.30;99.90;;;;;;5097775;27;20039;-78
2021/09/27 13:07:04;;;;;;;8.05;4.50;;;22.20;99.90;;;;;;5111269;27;21478;-77
2021/09/27 13:09:57;;;;;;;8.82;4.53;;;22.20;99.90;;;;;;5111270;27;20074;-80
2021/09/27 13:13:05;;;;;;;6.85;4.60;;;22.10;99.90;;;;;;5109692;28;20126;-76
2021/09/27 13:15:35;;;;;;;7.40;5.43;;;21.90;99.90;;;;;;5084596;28;20101;-78
2021/09/27 13:18:09;;;;;;;9.38;4.80;;;21.70;99.90;;;;;;5108583;27;20032;-79
2021/09/27 13:21:14;;;;;;;8.13;4.95;;;21.50;99.90;;;;;;5114390;27;20057;-80
2021/09/27 13:23:39;;;;;;;10.27;5.30;;;21.40;99.90;;;;;;5115570;27;20040;-77
2021/09/27 13:26:12;;;;;;;8.70;5.43;;;21.30;99.90;;;;;;5090958;27;20039;-77
2021/09/27 13:28:44;;;;;;;10.77;5.43;;;21.40;99.90;;;;;;5109107;27;20044;-81
2021/09/27 13:31:10;;;;;;;13.68;5.13;;;21.50;99.90;;;;;;5080333;28;20066;-81
2021/09/27 13:33:43;;;;;;;6.80;4.65;;;21.60;99.90;;;;;;5102191;28;20047;-77